Terminal Aerodrome Forecast
Issued by NWS

Home | Current Version | Previous Version | Text Only | Print | Product List | Glossary On
Versions: 1 2 3 4 5 6 7 8 9 10 11 12 13 14 15 16 17 18 19 20 21 22 23 24 25 26 27
000
FTUS44 KMAF 252200 AAB
TAFINK
TAF AMD
KINK 252206Z 2522/2618 14010KT P6SM FEW100
      TEMPO 2522/2524 VRB15G25KT SHRA
     FM260200 22006KT P6SM SKC=

USA.gov is the U.S. government's official web portal to all federal, state and local government web resources and services.